Walum, North Dakota
Current Conditions -  °F | °C
As of 3:55 PM on Friday 28 Nov 2014 (Local Time) from KBAC Reporting Station
Overcast Overcast  
Wind Chill: -1°   Ceiling: 600
Heat Index: 14°   Visibility: 10mi
Dew Point: 10°   Wind: 14mph
Humidity: 86%   Direction: 110°ESE
Pressure: 29.71"   Gusts: NA
Location:  47.2843°N, 98.1073°W
Report Text: KBAC 282155Z AUTO 11012KT 10SM BKN006 BKN011 OVC095 M10/M12 A2971 RMK AO2
Loading
Personal Weather Stations






























Interactive Weather Map New forecast layout! Learn more

10-Day Weather Forecast

Advertisements
Track Severe Weather on mobile